createdAt,value
2022-11-20T00:01:47.923Z,100763.97
2022-11-20T00:04:16.895Z,100751.53
2022-11-20T00:06:47.128Z,100762.22
2022-11-20T00:09:18.367Z,100765.03
2022-11-20T00:11:47.522Z,100771.94
2022-11-20T00:14:19.379Z,100761.47
2022-11-20T00:16:48.197Z,100765.88
2022-11-20T00:19:18.498Z,100762.75
2022-11-20T00:21:51.129Z,100766.22
2022-11-20T00:24:23.450Z,100768.84
2022-11-20T00:26:52.381Z,100765.53
2022-11-20T00:29:21.340Z,100759.81
2022-11-20T00:31:57.524Z,100764.84
2022-11-20T00:34:30.059Z,100767.44
2022-11-20T00:37:02.672Z,100765.25
2022-11-20T00:39:31.753Z,100763.78
2022-11-20T00:42:01.178Z,100760.28
2022-11-20T00:44:30.470Z,100758.53
2022-11-20T00:46:59.289Z,100760.31
2022-11-20T00:49:28.502Z,100760.56
2022-11-20T00:51:57.863Z,100763.22
2022-11-20T00:54:28.481Z,100758.28
2022-11-20T00:56:57.636Z,100758.28
2022-11-20T00:59:26.566Z,100757.31
2022-11-20T01:01:55.519Z,100760.97
2022-11-20T01:04:24.763Z,100755.03
2022-11-20T01:06:53.774Z,100760.78
2022-11-20T01:09:25.840Z,100765.19
2022-11-20T01:11:57.282Z,100761.78
2022-11-20T01:14:26.994Z,100761.78
2022-11-20T01:16:55.956Z,100766.94
2022-11-20T01:19:26.211Z,100761.09
2022-11-20T01:21:57.226Z,100759.56
2022-11-20T01:24:37.844Z,100757.94
2022-11-20T01:27:08.903Z,100764.69
2022-11-20T01:29:40.514Z,100759.50
2022-11-20T01:32:14.907Z,100759.56
2022-11-20T01:34:49.626Z,100754.06
2022-11-20T01:37:18.739Z,100755.84
2022-11-20T01:39:53.338Z,100753.03
2022-11-20T01:42:41.721Z,100758.25
2022-11-20T01:45:52.175Z,100752.97
2022-11-20T01:48:25.370Z,100748.56
2022-11-20T01:50:58.282Z,100753.84
2022-11-20T01:53:33.809Z,100749.56
2022-11-20T01:56:08.143Z,100744.13
2022-11-20T01:58:48.295Z,100748.38
2022-11-20T02:01:17.236Z,100747.44
2022-11-20T02:03:47.247Z,100747.34
2022-11-20T02:06:25.244Z,100741.81
2022-11-20T02:08:54.666Z,100743.88
2022-11-20T02:11:23.682Z,100731.84
2022-11-20T02:13:53.341Z,100740.63
2022-11-20T02:16:27.492Z,100738.25
2022-11-20T02:19:04.975Z,100733.38
2022-11-20T02:21:42.767Z,100731.66
2022-11-20T02:24:16.964Z,100740.63
2022-11-20T02:26:53.925Z,100735.03
2022-11-20T02:29:30.079Z,100730.13
2022-11-20T02:32:06.607Z,100719.13
2022-11-20T02:34:38.774Z,100718.56
2022-11-20T02:37:07.614Z,100719.66
2022-11-20T02:39:38.557Z,100721.56
2022-11-20T02:42:08.623Z,100715.38
2022-11-20T02:44:37.550Z,100723.97
2022-11-20T02:47:06.566Z,100720.75
2022-11-20T02:49:35.387Z,100723.50
2022-11-20T02:52:04.340Z,100717.59
2022-11-20T02:54:34.088Z,100715.81
2022-11-20T02:57:06.535Z,100715.50
2022-11-20T03:00:08.491Z,100721.41
2022-11-20T03:02:37.419Z,100722.38
2022-11-20T03:05:09.639Z,100716.78
2022-11-20T03:07:38.539Z,100709.84
2022-11-20T03:10:09.149Z,100715.44
2022-11-20T03:12:43.230Z,100706.16
2022-11-20T03:15:18.612Z,100706.41
2022-11-20T03:17:47.531Z,100705.63
2022-11-20T03:20:17.204Z,100702.94
2022-11-20T03:22:49.382Z,100702.94
2022-11-20T03:25:18.307Z,100698.53
2022-11-20T03:27:49.101Z,100699.44
2022-11-20T03:30:19.854Z,100692.09
2022-11-20T03:32:48.820Z,100698.88
2022-11-20T03:35:20.096Z,100706.06
2022-11-20T03:37:54.425Z,100711.25
2022-11-20T03:40:26.885Z,100710.09
2022-11-20T03:42:57.002Z,100703.19
2022-11-20T03:45:26.344Z,100698.16
2022-11-20T03:47:55.020Z,100696.38
2022-11-20T03:50:25.276Z,100707.03
2022-11-20T03:52:54.009Z,100699.78
2022-11-20T03:55:23.265Z,100693.94
2022-11-20T03:57:52.084Z,100700.94
2022-11-20T04:00:27.293Z,100692.41
2022-11-20T04:02:56.186Z,100691.44
2022-11-20T04:05:30.309Z,100694.13
2022-11-20T04:08:00.131Z,100690.56
2022-11-20T04:10:29.144Z,100688.59
2022-11-20T04:13:06.980Z,100686.16
2022-11-20T04:15:44.828Z,100684.41
2022-11-20T04:18:17.140Z,100686.16
2022-11-20T04:20:46.379Z,100680.06
2022-11-20T04:23:14.965Z,100680.16
2022-11-20T04:25:43.865Z,100681.78
2022-11-20T04:28:12.590Z,100686.19
2022-11-20T04:30:43.415Z,100681.88
2022-11-20T04:33:12.722Z,100680.25
2022-11-20T04:35:50.985Z,100672.38
2022-11-20T04:38:22.858Z,100682.94
2022-11-20T04:40:51.820Z,100674.22
2022-11-20T04:43:20.720Z,100668.94
2022-11-20T04:46:00.842Z,100668.00
2022-11-20T04:48:32.720Z,100670.72
2022-11-20T04:51:17.736Z,100661.16
2022-11-20T04:53:50.550Z,100663.66
2022-11-20T04:56:24.176Z,100657.59
2022-11-20T04:58:53.259Z,100671.63
2022-11-20T05:01:30.368Z,100661.94
2022-11-20T05:04:02.651Z,100659.38
2022-11-20T05:06:31.510Z,100656.59
2022-11-20T05:09:01.064Z,100657.59
2022-11-20T05:11:30.968Z,100647.88
2022-11-20T05:14:02.097Z,100655.72
2022-11-20T05:16:32.774Z,100653.22
2022-11-20T05:19:01.564Z,100660.03
2022-11-20T05:21:33.940Z,100654.28
2022-11-20T05:24:13.366Z,100651.34
2022-11-20T05:26:42.318Z,100649.81
2022-11-20T05:29:27.672Z,100651.69
2022-11-20T05:32:06.135Z,100653.47
2022-11-20T05:34:38.872Z,100654.22
2022-11-20T05:37:07.781Z,100651.34
2022-11-20T05:39:40.191Z,100640.22
2022-11-20T05:42:26.575Z,100641.19
2022-11-20T05:44:55.323Z,100643.28
2022-11-20T05:47:26.415Z,100628.75
2022-11-20T05:50:00.927Z,100626.88
2022-11-20T05:52:40.367Z,100636.38
2022-11-20T05:55:11.290Z,100633.72
2022-11-20T05:57:40.114Z,100620.63
2022-11-20T06:00:13.919Z,100629.66
2022-11-20T06:02:44.656Z,100622.59
2022-11-20T06:05:13.541Z,100626.09
2022-11-20T06:07:43.079Z,100629.78
2022-11-20T06:10:15.206Z,100626.38
2022-11-20T06:12:44.376Z,100627.09
2022-11-20T06:15:15.303Z,100627.25
2022-11-20T06:17:48.759Z,100622.78
2022-11-20T06:20:17.757Z,100628.91
2022-11-20T06:22:56.127Z,100617.03
2022-11-20T06:25:25.390Z,100619.09
2022-11-20T06:27:54.545Z,100626.25
2022-11-20T06:30:24.775Z,100626.34
2022-11-20T06:32:57.795Z,100630.63
2022-11-20T06:35:34.057Z,100624.38
2022-11-20T06:38:12.758Z,100630.72
2022-11-20T06:40:44.882Z,100623.75
2022-11-20T06:43:14.024Z,100626.16
2022-11-20T06:46:08.938Z,100620.94
2022-11-20T06:48:43.644Z,100613.22
2022-11-20T06:54:09.298Z,100619.34
2022-11-20T06:56:38.147Z,100619.34
2022-11-20T06:59:08.044Z,100622.03
2022-11-20T07:01:37.800Z,100614.13
2022-11-20T07:04:09.219Z,100613.16
2022-11-20T07:06:46.636Z,100616.72
2022-11-20T07:09:25.682Z,100610.56
2022-11-20T07:11:55.276Z,100613.25
2022-11-20T07:14:25.113Z,100608.91
2022-11-20T07:16:57.205Z,100616.75
2022-11-20T07:19:27.800Z,100612.47
2022-11-20T07:21:57.130Z,100614.19
2022-11-20T07:24:26.223Z,100619.44
2022-11-20T07:27:11.224Z,100606.25
2022-11-20T07:29:41.057Z,100607.00
2022-11-20T07:32:09.835Z,100608.75
2022-11-20T07:34:46.114Z,100613.69
2022-11-20T07:37:16.177Z,100610.25
2022-11-20T07:42:27.996Z,100603.94
2022-11-20T07:45:00.051Z,100602.16
2022-11-20T07:47:37.411Z,100601.03
2022-11-20T07:50:09.237Z,100599.00
2022-11-20T07:52:48.250Z,100600.53
2022-11-20T07:55:25.241Z,100603.38
2022-11-20T07:58:00.069Z,100601.53
2022-11-20T08:00:29.685Z,100596.97
2022-11-20T08:02:59.045Z,100598.81
2022-11-20T08:05:29.080Z,100592.41
2022-11-20T08:07:58.768Z,100590.72
2022-11-20T08:10:28.230Z,100594.06
2022-11-20T08:16:09.214Z,100594.13
2022-11-20T08:18:38.194Z,100597.44
2022-11-20T08:21:20.538Z,100600.69
2022-11-20T08:23:49.363Z,100610.22
2022-11-20T08:26:18.337Z,100604.78
2022-11-20T08:28:47.904Z,100599.91
2022-11-20T08:31:16.749Z,100591.53
2022-11-20T08:34:08.765Z,100603.81
2022-11-20T08:36:40.258Z,100600.31
2022-11-20T08:39:09.780Z,100595.41
2022-11-20T08:41:39.167Z,100595.41
2022-11-20T08:44:15.078Z,100600.31
2022-11-20T08:46:46.994Z,100593.97
2022-11-20T08:49:18.376Z,100605.59
2022-11-20T08:51:52.779Z,100601.38
2022-11-20T08:54:40.404Z,100605.44
2022-11-20T08:57:10.406Z,100605.06
2022-11-20T09:00:05.177Z,100593.84
2022-11-20T09:02:31.339Z,100605.03
2022-11-20T09:05:02.599Z,100596.09
2022-11-20T09:07:33.584Z,100600.97
2022-11-20T09:10:25.113Z,100595.41
2022-11-20T09:12:53.097Z,100591.97
2022-11-20T09:15:23.114Z,100585.75
2022-11-20T09:17:55.350Z,100584.31
2022-11-20T09:20:25.603Z,100587.09
2022-11-20T09:22:55.802Z,100577.91
2022-11-20T09:25:25.575Z,100582.31
2022-11-20T09:27:58.529Z,100582.72
2022-11-20T09:30:28.205Z,100587.53
2022-11-20T09:32:57.666Z,100592.13
2022-11-20T09:35:44.247Z,100593.50
2022-11-20T09:38:16.253Z,100584.56
2022-11-20T09:41:02.281Z,100579.53
2022-11-20T09:43:51.859Z,100574.38
2022-11-20T09:46:32.158Z,100571.28
2022-11-20T09:49:27.518Z,100568.16
2022-11-20T09:52:07.172Z,100558.91
2022-11-20T09:54:42.919Z,100555.66
2022-11-20T09:57:17.787Z,100561.41
2022-11-20T09:59:56.533Z,100566.91
2022-11-20T10:02:47.019Z,100561.84
2022-11-20T10:05:23.003Z,100560.22
2022-11-20T10:07:58.862Z,100567.44
2022-11-20T10:10:43.484Z,100578.06
2022-11-20T10:13:42.612Z,100569.66
2022-11-20T10:16:30.433Z,100558.44
2022-11-20T10:19:17.339Z,100552.31
2022-11-20T10:22:06.176Z,100561.03
2022-11-20T10:24:55.464Z,100556.16
2022-11-20T10:28:14.494Z,100561.13
2022-11-20T10:30:59.751Z,100555.09
2022-11-20T10:33:56.958Z,100543.19
2022-11-20T10:36:37.470Z,100537.47
2022-11-20T10:39:13.601Z,100528.34
2022-11-20T10:41:57.327Z,100522.56
2022-11-20T10:44:57.328Z,100508.97
2022-11-20T10:47:32.829Z,100508.06
2022-11-20T10:50:22.421Z,100508.22
2022-11-20T10:53:21.043Z,100507.72
2022-11-20T10:55:58.821Z,100515.47
2022-11-20T10:58:46.306Z,100510.38
2022-11-20T11:01:24.584Z,100510.19
2022-11-20T11:04:06.354Z,100504.34
2022-11-20T11:07:14.701Z,100505.59
2022-11-20T11:09:52.772Z,100501.56
2022-11-20T11:12:40.953Z,100504.78
2022-11-20T11:15:27.796Z,100501.59
2022-11-20T11:17:57.610Z,100504.97
2022-11-20T11:20:38.220Z,100503.66
2022-11-20T11:23:33.123Z,100502.41
2022-11-20T11:26:28.584Z,100497.03
2022-11-20T11:29:07.078Z,100496.66
2022-11-20T11:31:38.037Z,100486.91
2022-11-20T11:34:28.244Z,100495.50
2022-11-20T11:37:07.222Z,100491.22
2022-11-20T11:39:37.477Z,100491.28
2022-11-20T11:42:24.633Z,100479.94
2022-11-20T11:45:08.875Z,100480.72
2022-11-20T11:47:49.258Z,100481.47
2022-11-20T11:50:26.979Z,100482.41
2022-11-20T11:53:12.376Z,100476.31
2022-11-20T11:55:48.967Z,100479.34
2022-11-20T11:58:50.425Z,100474.13
2022-11-20T12:01:35.845Z,100478.25
2022-11-20T12:04:21.085Z,100488.13
2022-11-20T12:07:06.114Z,100481.50
2022-11-20T12:10:12.235Z,100478.88
2022-11-20T12:13:18.722Z,100476.00
2022-11-20T12:15:52.987Z,100477.63
2022-11-20T12:18:28.386Z,100480.03
2022-11-20T12:21:26.816Z,100483.94
2022-11-20T12:24:44.674Z,100482.50
2022-11-20T12:28:06.488Z,100485.22
2022-11-20T12:30:46.667Z,100486.81
2022-11-20T12:34:02.699Z,100485.22
2022-11-20T12:36:46.089Z,100480.94
2022-11-20T12:39:37.717Z,100481.28
2022-11-20T12:42:50.907Z,100476.56
2022-11-20T12:49:21.783Z,100473.91
2022-11-20T12:52:44.579Z,100465.97
2022-11-20T12:55:36.391Z,100466.63
2022-11-20T12:58:20.273Z,100468.50
2022-11-20T13:01:03.328Z,100470.28
2022-11-20T13:03:50.726Z,100471.00
2022-11-20T13:06:21.567Z,100469.31
2022-11-20T13:08:57.231Z,100471.09
2022-11-20T13:11:54.824Z,100470.09
2022-11-20T13:14:41.413Z,100465.34
2022-11-20T13:17:22.102Z,100457.19
2022-11-20T13:20:05.927Z,100451.78
2022-11-20T13:23:00.450Z,100457.00
2022-11-20T13:25:54.978Z,100464.97
2022-11-20T13:28:32.945Z,100448.53
2022-11-20T13:31:05.797Z,100451.25
2022-11-20T13:33:38.083Z,100449.66
2022-11-20T13:36:27.306Z,100445.72
2022-11-20T13:38:58.958Z,100439.22
2022-11-20T13:41:32.521Z,100433.63
2022-11-20T13:44:13.068Z,100422.66
2022-11-20T13:46:46.470Z,100434.53
2022-11-20T13:49:26.286Z,100438.66
2022-11-20T13:52:14.496Z,100433.91
2022-11-20T13:55:22.874Z,100437.44
2022-11-20T13:58:25.054Z,100435.41
2022-11-20T14:01:03.436Z,100435.34
2022-11-20T14:09:39.633Z,100421.78
2022-11-20T14:12:33.609Z,100424.38
2022-11-20T14:15:05.226Z,100426.91
2022-11-20T14:18:30.098Z,100436.69
2022-11-20T14:20:54.557Z,100436.69
2022-11-20T14:23:36.321Z,100445.28
2022-11-20T14:26:05.145Z,100447.13
2022-11-20T14:28:34.167Z,100455.38
2022-11-20T14:34:39.002Z,100454.47
2022-11-20T14:37:24.549Z,100444.19
2022-11-20T14:39:57.410Z,100454.41
2022-11-20T14:42:49.484Z,100457.97
2022-11-20T14:45:28.868Z,100455.63
2022-11-20T14:48:22.262Z,100441.31
2022-11-20T14:50:54.548Z,100447.88
2022-11-20T14:53:30.631Z,100449.53
2022-11-20T14:56:04.528Z,100442.31
2022-11-20T15:01:48.852Z,100440.69
2022-11-20T15:04:41.103Z,100438.66
2022-11-20T15:07:57.548Z,100435.63
2022-11-20T15:10:07.339Z,100433.78
2022-11-20T15:12:44.206Z,100429.28
2022-11-20T15:15:20.398Z,100428.19
2022-11-20T15:17:51.099Z,100431.38
2022-11-20T15:20:21.252Z,100436.94
2022-11-20T15:22:54.012Z,100437.63
2022-11-20T15:25:43.170Z,100442.69
2022-11-20T15:31:52.069Z,100426.31
2022-11-20T15:34:34.582Z,100421.94
2022-11-20T15:37:08.263Z,100426.19
2022-11-20T15:39:46.436Z,100434.28
2022-11-20T15:49:40.199Z,100436.59
2022-11-20T15:52:50.620Z,100426.72
2022-11-20T15:59:02.568Z,100429.75
2022-11-20T16:05:33.431Z,100422.53
2022-11-20T16:15:38.060Z,100420.78
2022-11-20T16:20:03.083Z,100410.41
2022-11-20T16:22:23.088Z,100414.88
2022-11-20T16:25:09.394Z,100415.78
2022-11-20T16:27:43.349Z,100415.69
2022-11-20T16:30:29.483Z,100417.91
2022-11-20T16:33:03.281Z,100417.53
2022-11-20T16:35:34.016Z,100423.84
2022-11-20T16:38:24.020Z,100418.59
2022-11-20T16:41:14.793Z,100425.56
2022-11-20T16:44:27.529Z,100424.66
2022-11-20T16:47:04.741Z,100422.75
2022-11-20T16:49:36.405Z,100428.41
2022-11-20T16:52:08.781Z,100439.84
2022-11-20T16:54:40.861Z,100437.66
2022-11-20T16:57:18.205Z,100435.09
2022-11-20T17:00:02.058Z,100433.72
2022-11-20T17:02:50.086Z,100422.56
2022-11-20T17:05:57.089Z,100425.94
2022-11-20T17:08:33.345Z,100428.19
2022-11-20T17:11:09.268Z,100426.13
2022-11-20T17:13:41.661Z,100427.00
2022-11-20T17:16:16.471Z,100419.66
2022-11-20T17:18:50.937Z,100426.66
2022-11-20T17:21:30.441Z,100420.53
2022-11-20T17:24:16.286Z,100422.44
2022-11-20T17:26:54.579Z,100419.72
2022-11-20T17:29:24.572Z,100416.81
2022-11-20T17:31:58.997Z,100407.34
2022-11-20T17:34:42.368Z,100411.91
2022-11-20T17:37:25.147Z,100402.25
2022-11-20T17:43:11.010Z,100413.47
2022-11-20T17:52:14.269Z,100401.25
2022-11-20T18:05:08.260Z,100414.25
2022-11-20T18:07:41.618Z,100411.22
2022-11-20T18:13:05.226Z,100408.19
2022-11-20T18:18:24.383Z,100394.59
2022-11-20T18:22:04.874Z,100407.19
2022-11-20T18:23:52.703Z,100399.13
2022-11-20T18:26:21.544Z,100399.69
2022-11-20T18:28:51.430Z,100396.47
2022-11-20T18:31:29.626Z,100403.88
2022-11-20T18:34:13.259Z,100387.50
2022-11-20T18:36:44.242Z,100394.47
2022-11-20T18:39:16.960Z,100401.59
2022-11-20T18:42:11.789Z,100407.84
2022-11-20T18:45:10.303Z,100409.25
2022-11-20T18:47:44.180Z,100412.59
2022-11-20T18:50:14.680Z,100407.47
2022-11-20T18:52:48.246Z,100406.81
2022-11-20T18:55:23.686Z,100405.59
2022-11-20T18:57:52.879Z,100404.75
2022-11-20T19:00:25.896Z,100400.81
2022-11-20T19:03:30.018Z,100404.25
2022-11-20T19:06:56.395Z,100405.28
2022-11-20T19:09:40.662Z,100400.94
2022-11-20T19:12:19.698Z,100403.19
2022-11-20T19:14:49.965Z,100401.34
2022-11-20T19:17:19.185Z,100398.97
2022-11-20T19:20:00.521Z,100396.72
2022-11-20T19:23:00.704Z,100395.31
2022-11-20T19:25:37.980Z,100388.25
2022-11-20T19:28:15.741Z,100382.75
2022-11-20T19:30:53.697Z,100374.38
2022-11-20T19:33:29.585Z,100371.19
2022-11-20T19:39:21.963Z,100370.97
2022-11-20T19:41:50.900Z,100379.22
2022-11-20T19:44:26.487Z,100373.09
2022-11-20T19:47:11.555Z,100386.16
2022-11-20T19:49:46.250Z,100381.78
2022-11-20T19:52:16.500Z,100381.22
2022-11-20T19:54:49.200Z,100383.88
2022-11-20T19:57:24.843Z,100372.53
2022-11-20T20:00:03.061Z,100378.13
2022-11-20T20:02:37.981Z,100382.75
2022-11-20T20:05:45.993Z,100385.69
2022-11-20T20:08:18.161Z,100374.56
2022-11-20T20:10:56.725Z,100369.59
2022-11-20T20:13:28.725Z,100367.44
2022-11-20T20:16:12.168Z,100368.44
2022-11-20T20:19:01.364Z,100370.34
2022-11-20T20:21:36.563Z,100368.69
2022-11-20T20:24:13.077Z,100364.50
2022-11-20T20:26:46.566Z,100375.16
2022-11-20T20:29:25.295Z,100368.56
2022-11-20T20:31:55.076Z,100363.41
2022-11-20T20:34:24.909Z,100361.53
2022-11-20T20:37:01.247Z,100365.81
2022-11-20T20:39:38.636Z,100361.63
2022-11-20T20:42:09.369Z,100354.84
2022-11-20T20:48:06.725Z,100348.66
2022-11-20T20:51:10.756Z,100357.47
2022-11-20T20:53:42.581Z,100360.09
2022-11-20T20:56:12.676Z,100347.97
2022-11-20T20:58:43.361Z,100355.97
2022-11-20T21:01:35.710Z,100349.94
2022-11-20T21:04:04.880Z,100351.56
2022-11-20T21:06:34.922Z,100336.91
2022-11-20T21:09:13.139Z,100343.19
2022-11-20T21:11:45.692Z,100333.59
2022-11-20T21:14:15.916Z,100330.25
2022-11-20T21:16:45.749Z,100333.06
2022-11-20T21:19:22.771Z,100322.81
2022-11-20T21:22:05.870Z,100322.63
2022-11-20T21:24:39.850Z,100326.13
2022-11-20T21:27:09.007Z,100320.88
2022-11-20T21:29:47.675Z,100324.44
2022-11-20T21:32:17.002Z,100315.69
2022-11-20T21:34:46.020Z,100316.47
2022-11-20T21:37:15.503Z,100313.66
2022-11-20T21:39:51.099Z,100303.34
2022-11-20T21:42:20.674Z,100289.50
2022-11-20T21:44:57.782Z,100289.38
2022-11-20T21:47:27.105Z,100282.31
2022-11-20T21:49:59.954Z,100286.47
2022-11-20T21:52:32.579Z,100275.28
2022-11-20T21:55:04.666Z,100283.78
2022-11-20T21:57:35.884Z,100282.06
2022-11-20T22:00:09.170Z,100287.34
2022-11-20T22:02:41.569Z,100279.34
2022-11-20T22:05:11.710Z,100286.59
2022-11-20T22:07:49.855Z,100283.97
2022-11-20T22:10:21.680Z,100276.19
2022-11-20T22:12:53.080Z,100271.91
2022-11-20T22:15:53.130Z,100271.53
2022-11-20T22:18:18.227Z,100264.31
2022-11-20T22:20:46.994Z,100261.59
2022-11-20T22:23:23.049Z,100260.91
2022-11-20T22:25:55.861Z,100260.78
2022-11-20T22:28:24.773Z,100259.97
2022-11-20T22:30:59.241Z,100256.56
2022-11-20T22:33:31.870Z,100253.06
2022-11-20T22:36:06.311Z,100250.63
2022-11-20T22:38:39.805Z,100237.34
2022-11-20T22:41:14.676Z,100234.34
2022-11-20T22:43:47.464Z,100241.19
2022-11-20T22:46:20.001Z,100241.44
2022-11-20T22:48:54.269Z,100240.78
2022-11-20T22:51:27.031Z,100238.25
2022-11-20T22:54:01.532Z,100254.16
2022-11-20T22:56:43.313Z,100244.59
2022-11-20T22:59:19.477Z,100244.78
2022-11-20T23:01:53.064Z,100238.63
2022-11-20T23:04:23.964Z,100244.75
2022-11-20T23:06:55.135Z,100237.75
2022-11-20T23:09:30.088Z,100237.94
2022-11-20T23:12:01.576Z,100234.06
2022-11-20T23:14:31.125Z,100234.28
2022-11-20T23:17:03.148Z,100225.72
2022-11-20T23:19:32.108Z,100233.66
2022-11-20T23:22:24.656Z,100223.13
2022-11-20T23:24:53.432Z,100226.78
2022-11-20T23:27:26.014Z,100220.97
2022-11-20T23:29:59.453Z,100226.72
2022-11-20T23:32:31.048Z,100218.19
2022-11-20T23:35:00.102Z,100218.59
2022-11-20T23:37:29.199Z,100223.84
2022-11-20T23:39:57.764Z,100217.72
2022-11-20T23:42:26.530Z,100210.97
2022-11-20T23:44:55.960Z,100213.34
2022-11-20T23:47:29.635Z,100203.31
2022-11-20T23:50:06.160Z,100207.75
2022-11-20T23:52:34.849Z,100203.50
2022-11-20T23:55:03.768Z,100198.22
2022-11-20T23:57:32.869Z,100200.84
